createdAt,value
2017-10-05T00:00:01.310Z,1006.98
2017-10-05T00:01:01.300Z,1006.91
2017-10-05T00:02:01.288Z,1006.94
2017-10-05T00:03:01.293Z,1006.95
2017-10-05T00:04:01.269Z,1006.92
2017-10-05T00:05:01.262Z,1006.87
2017-10-05T00:06:01.251Z,1006.86
2017-10-05T00:07:01.242Z,1006.93
2017-10-05T00:08:01.242Z,1006.79
2017-10-05T00:09:01.257Z,1006.75
2017-10-05T00:10:01.238Z,1006.69
2017-10-05T00:11:01.207Z,1006.69
2017-10-05T00:12:01.196Z,1006.67
2017-10-05T00:13:01.182Z,1006.62
2017-10-05T00:14:01.174Z,1006.57
2017-10-05T00:15:01.165Z,1006.51
2017-10-05T00:16:01.157Z,1006.50
2017-10-05T00:17:01.146Z,1006.47
2017-10-05T00:18:01.137Z,1006.32
2017-10-05T00:19:01.128Z,1006.44
2017-10-05T00:20:01.118Z,1006.42
2017-10-05T00:21:01.109Z,1006.41
2017-10-05T00:22:01.104Z,1006.37
2017-10-05T00:23:01.092Z,1006.42
2017-10-05T00:24:01.081Z,1006.34
2017-10-05T00:25:01.081Z,1006.28
2017-10-05T00:26:01.063Z,1006.28
2017-10-05T00:27:01.051Z,1006.29
2017-10-05T00:28:01.042Z,1006.34
2017-10-05T00:29:01.032Z,1006.31
2017-10-05T00:30:01.027Z,1006.24
2017-10-05T00:31:01.015Z,1006.16
2017-10-05T00:32:01.005Z,1006.17
2017-10-05T00:33:01.000Z,1006.09
2017-10-05T00:34:00.988Z,1006.11
2017-10-05T00:35:00.980Z,1006.04
2017-10-05T00:36:00.968Z,1006.00
2017-10-05T00:37:00.957Z,1005.96
2017-10-05T00:38:00.955Z,1005.98
2017-10-05T00:39:00.937Z,1005.88
2017-10-05T00:40:00.929Z,1005.98
2017-10-05T00:41:00.919Z,1005.92
2017-10-05T00:42:00.908Z,1005.90
2017-10-05T00:43:00.899Z,1005.87
2017-10-05T00:44:00.893Z,1005.92
2017-10-05T00:45:00.880Z,1005.92
2017-10-05T00:46:00.871Z,1005.93
2017-10-05T00:47:00.859Z,1005.90
2017-10-05T00:48:00.860Z,1005.96
2017-10-05T00:49:00.856Z,1005.92
2017-10-05T00:50:00.834Z,1005.97
2017-10-05T00:51:00.821Z,1005.94
2017-10-05T00:52:00.812Z,1005.90
2017-10-05T00:53:00.807Z,1005.83
2017-10-05T00:54:00.793Z,1005.76
2017-10-05T00:55:00.783Z,1005.66
2017-10-05T00:56:00.776Z,1005.71
2017-10-05T00:57:00.764Z,1005.55
2017-10-05T00:58:00.754Z,1005.64
2017-10-05T00:59:00.744Z,1005.66
2017-10-05T01:00:00.735Z,1005.64
2017-10-05T01:01:00.753Z,1005.64
2017-10-05T01:02:00.718Z,1005.62
2017-10-05T01:03:00.707Z,1005.56
2017-10-05T01:04:00.695Z,1005.59
2017-10-05T01:05:00.686Z,1005.62
2017-10-05T01:06:00.680Z,1005.47
2017-10-05T01:07:00.668Z,1005.50
2017-10-05T01:08:00.658Z,1005.42
2017-10-05T01:09:00.647Z,1005.37
2017-10-05T01:10:00.638Z,1005.39
2017-10-05T01:11:00.630Z,1005.31
2017-10-05T01:12:00.619Z,1005.32
2017-10-05T01:13:00.609Z,1005.32
2017-10-05T01:14:00.603Z,1005.12
2017-10-05T01:15:00.592Z,1005.17
2017-10-05T01:16:00.580Z,1005.16
2017-10-05T01:17:00.571Z,1005.12
2017-10-05T01:18:00.559Z,1005.04
2017-10-05T01:19:00.550Z,1005.11
2017-10-05T01:20:00.544Z,1004.91
2017-10-05T01:21:00.534Z,1005.02
2017-10-05T01:22:00.520Z,1005.00
2017-10-05T01:23:00.511Z,1004.97
2017-10-05T01:24:00.500Z,1004.93
2017-10-05T01:25:00.493Z,1004.97
2017-10-05T01:26:00.481Z,1004.94
2017-10-05T01:27:00.472Z,1004.92
2017-10-05T01:28:00.461Z,1004.95
2017-10-05T01:29:00.450Z,1004.94
2017-10-05T01:30:00.471Z,1004.93
2017-10-05T01:31:00.471Z,1004.85
2017-10-05T01:32:00.422Z,1004.93
2017-10-05T01:33:00.412Z,1004.78
2017-10-05T01:34:00.403Z,1004.70
2017-10-05T01:35:00.393Z,1004.74
2017-10-05T01:36:00.392Z,1004.79
2017-10-05T01:37:00.381Z,1004.78
2017-10-05T01:38:00.362Z,1004.72
2017-10-05T01:39:00.352Z,1004.71
2017-10-05T01:40:00.344Z,1004.70
2017-10-05T01:41:00.333Z,1004.68
2017-10-05T01:42:00.324Z,1004.62
2017-10-05T01:43:00.313Z,1004.54
2017-10-05T01:44:00.305Z,1004.57
2017-10-05T01:45:00.293Z,1004.57
2017-10-05T01:46:00.282Z,1004.59
2017-10-05T01:47:00.274Z,1004.53
2017-10-05T01:48:00.270Z,1004.40
2017-10-05T01:49:00.253Z,1004.42
2017-10-05T01:50:00.245Z,1004.43
2017-10-05T01:51:00.236Z,1004.49
2017-10-05T01:52:00.226Z,1004.44
2017-10-05T01:53:00.215Z,1004.42
2017-10-05T01:54:00.205Z,1004.42
2017-10-05T01:55:00.194Z,1004.36
2017-10-05T01:56:00.186Z,1004.31
2017-10-05T01:57:00.175Z,1004.28
2017-10-05T01:58:00.167Z,1004.21
2017-10-05T01:59:00.158Z,1004.20
2017-10-05T02:00:00.146Z,1004.20
2017-10-05T02:01:00.136Z,1004.14
2017-10-05T02:02:00.125Z,1004.23
2017-10-05T02:03:00.120Z,1004.14
2017-10-05T02:04:00.107Z,1004.09
2017-10-05T02:05:00.097Z,1004.10
2017-10-05T02:06:00.086Z,1004.06
2017-10-05T02:07:00.077Z,1004.06
2017-10-05T02:08:00.066Z,1003.90
2017-10-05T02:09:00.057Z,1003.91
2017-10-05T02:10:00.045Z,1003.87
2017-10-05T02:11:00.038Z,1003.84
2017-10-05T02:12:00.031Z,1003.87
2017-10-05T02:13:00.037Z,1003.81
2017-10-05T02:14:00.007Z,1003.79
2017-10-05T02:14:59.998Z,1003.79
2017-10-05T02:15:59.988Z,1003.85
2017-10-05T02:16:59.979Z,1003.71
2017-10-05T02:17:59.967Z,1003.78
2017-10-05T02:18:59.956Z,1003.69
2017-10-05T02:19:59.952Z,1003.66
2017-10-05T02:20:59.944Z,1003.71
2017-10-05T02:21:59.925Z,1003.63
2017-10-05T02:22:59.916Z,1003.60
2017-10-05T02:23:59.905Z,1003.62
2017-10-05T02:24:59.896Z,1003.60
2017-10-05T02:25:59.885Z,1003.61
2017-10-05T02:26:59.877Z,1003.58
2017-10-05T02:27:59.867Z,1003.52
2017-10-05T02:28:59.855Z,1003.59
2017-10-05T02:29:59.846Z,1003.57
2017-10-05T02:30:59.838Z,1003.48
2017-10-05T02:31:59.827Z,1003.49
2017-10-05T02:32:59.816Z,1003.46
2017-10-05T02:33:59.805Z,1003.41
2017-10-05T02:34:59.795Z,1003.37
2017-10-05T02:35:59.791Z,1003.30
2017-10-05T02:36:59.775Z,1003.31
2017-10-05T02:37:59.769Z,1003.31
2017-10-05T02:38:59.756Z,1003.31
2017-10-05T02:39:59.745Z,1003.28
2017-10-05T02:40:59.735Z,1003.22
2017-10-05T02:41:59.726Z,1003.26
2017-10-05T02:42:59.716Z,1003.23
2017-10-05T02:43:59.705Z,1003.22
2017-10-05T02:44:59.695Z,1003.25
2017-10-05T02:45:59.685Z,1003.26
2017-10-05T02:46:59.675Z,1003.15
2017-10-05T02:47:59.665Z,1003.14
2017-10-05T02:48:59.655Z,1003.04
2017-10-05T02:49:59.645Z,1003.06
2017-10-05T02:50:59.634Z,1002.96
2017-10-05T02:51:59.627Z,1003.05
2017-10-05T02:52:59.613Z,1002.99
2017-10-05T02:53:59.606Z,1002.99
2017-10-05T02:54:59.596Z,1002.93
2017-10-05T02:55:59.584Z,1002.94
2017-10-05T02:56:59.577Z,1002.92
2017-10-05T02:57:59.566Z,1002.90
2017-10-05T02:58:59.554Z,1002.89
2017-10-05T02:59:59.545Z,1002.88
2017-10-05T03:00:59.535Z,1002.81
2017-10-05T03:01:59.526Z,1002.76
2017-10-05T03:02:59.514Z,1002.76
2017-10-05T03:03:59.515Z,1002.75
2017-10-05T03:04:59.493Z,1002.70
2017-10-05T03:05:59.482Z,1002.66
2017-10-05T03:06:59.472Z,1002.66
2017-10-05T03:07:59.463Z,1002.65
2017-10-05T03:08:59.454Z,1002.63
2017-10-05T03:09:59.443Z,1002.66
2017-10-05T03:10:59.433Z,1002.63
2017-10-05T03:11:59.423Z,1002.61
2017-10-05T03:12:59.411Z,1002.60
2017-10-05T03:13:59.401Z,1002.53
2017-10-05T03:14:59.393Z,1002.52
2017-10-05T03:15:59.382Z,1002.50
2017-10-05T03:16:59.371Z,1002.56
2017-10-05T03:17:59.364Z,1002.53
2017-10-05T03:18:59.351Z,1002.47
2017-10-05T03:19:59.342Z,1002.53
2017-10-05T03:20:59.331Z,1002.49
2017-10-05T03:21:59.319Z,1002.42
2017-10-05T03:22:59.310Z,1002.37
2017-10-05T03:23:59.303Z,1002.36
2017-10-05T03:24:59.305Z,1002.32
2017-10-05T03:25:59.280Z,1002.16
2017-10-05T03:26:59.272Z,1002.14
2017-10-05T03:27:59.263Z,1002.11
2017-10-05T03:28:59.251Z,1002.14
2017-10-05T03:29:59.242Z,1002.08
2017-10-05T03:30:59.232Z,1002.01
2017-10-05T03:31:59.221Z,1001.97
2017-10-05T03:32:59.210Z,1001.92
2017-10-05T03:33:59.199Z,1001.96
2017-10-05T03:34:59.192Z,1001.91
2017-10-05T03:35:59.181Z,1001.94
2017-10-05T03:36:59.171Z,1001.85
2017-10-05T03:37:59.159Z,1001.82
2017-10-05T03:38:59.152Z,1001.79
2017-10-05T03:39:59.142Z,1001.74
2017-10-05T03:40:59.131Z,1001.61
2017-10-05T03:41:59.122Z,1001.68
2017-10-05T03:42:59.118Z,1001.69
2017-10-05T03:43:59.100Z,1001.63
2017-10-05T03:44:59.088Z,1001.62
2017-10-05T03:45:59.082Z,1001.65
2017-10-05T03:46:59.069Z,1001.59
2017-10-05T03:47:59.063Z,1001.58
2017-10-05T03:48:59.049Z,1001.54
2017-10-05T03:49:59.039Z,1001.52
2017-10-05T03:50:59.029Z,1001.52
2017-10-05T03:51:59.020Z,1001.48
2017-10-05T03:52:59.021Z,1001.47
2017-10-05T03:53:58.998Z,1001.44
2017-10-05T03:54:58.995Z,1001.47
2017-10-05T03:55:58.979Z,1001.49
2017-10-05T03:56:58.969Z,1001.44
2017-10-05T03:57:58.957Z,1001.48
2017-10-05T03:58:58.952Z,1001.48
2017-10-05T03:59:58.938Z,1001.41
2017-10-05T04:00:58.947Z,1001.35
2017-10-05T04:01:58.919Z,1001.36
2017-10-05T04:02:58.920Z,1001.33
2017-10-05T04:03:58.897Z,1001.32
2017-10-05T04:04:58.887Z,1001.35
2017-10-05T04:05:58.880Z,1001.35
2017-10-05T04:06:58.867Z,1001.36
2017-10-05T04:07:58.858Z,1001.33
2017-10-05T04:08:58.850Z,1001.32
2017-10-05T04:09:58.835Z,1001.33
2017-10-05T04:10:58.828Z,1001.36
2017-10-05T04:11:58.826Z,1001.38
2017-10-05T04:12:58.807Z,1001.42
2017-10-05T04:13:58.797Z,1001.38
2017-10-05T04:14:58.784Z,1001.36
2017-10-05T04:15:58.777Z,1001.30
2017-10-05T04:16:58.766Z,1001.30
2017-10-05T04:17:58.756Z,1001.36
2017-10-05T04:18:58.745Z,1001.40
2017-10-05T04:19:58.738Z,1001.48
2017-10-05T04:20:58.724Z,1001.44
2017-10-05T04:21:58.713Z,1001.39
2017-10-05T04:22:58.704Z,1001.45
2017-10-05T04:23:58.698Z,1001.48
2017-10-05T04:24:58.684Z,1001.40
2017-10-05T04:25:58.674Z,1001.37
2017-10-05T04:26:58.665Z,1001.41
2017-10-05T04:27:58.656Z,1001.39
2017-10-05T04:28:58.645Z,1001.44
2017-10-05T04:29:58.635Z,1001.44
2017-10-05T04:30:58.624Z,1001.43
2017-10-05T04:31:58.615Z,1001.42
2017-10-05T04:32:58.604Z,1001.44
2017-10-05T04:33:58.593Z,1001.48
2017-10-05T04:34:58.584Z,1001.47
2017-10-05T04:35:58.585Z,1001.51
2017-10-05T04:36:58.567Z,1001.63
2017-10-05T04:37:58.552Z,1001.59
2017-10-05T04:38:58.542Z,1000.21
2017-10-05T04:39:58.532Z,1000.28
2017-10-05T04:40:58.522Z,1000.15
2017-10-05T04:41:58.512Z,1000.15
2017-10-05T04:42:58.503Z,1000.11
2017-10-05T04:43:58.493Z,1000.14
2017-10-05T04:44:58.481Z,1000.24
2017-10-05T04:45:58.472Z,1000.10
2017-10-05T04:46:58.460Z,1000.10
2017-10-05T04:47:58.453Z,1000.03
2017-10-05T04:48:58.444Z,999.98
2017-10-05T04:49:58.431Z,999.80
2017-10-05T04:50:58.423Z,999.94
2017-10-05T04:51:58.422Z,999.95
2017-10-05T04:52:58.403Z,999.88
2017-10-05T04:53:58.390Z,999.97
2017-10-05T04:54:58.383Z,999.75
2017-10-05T04:55:58.371Z,999.66
2017-10-05T04:56:58.365Z,999.62
2017-10-05T04:57:58.349Z,999.73
2017-10-05T04:58:58.340Z,999.54
2017-10-05T04:59:58.330Z,999.65
2017-10-05T05:00:58.323Z,999.58
2017-10-05T05:01:58.309Z,999.57
2017-10-05T05:02:58.300Z,999.53
2017-10-05T05:03:58.292Z,999.53
2017-10-05T05:04:58.285Z,999.55
2017-10-05T05:05:58.270Z,999.50
2017-10-05T05:06:58.265Z,999.53
2017-10-05T05:07:58.249Z,999.50
2017-10-05T05:08:58.242Z,999.50
2017-10-05T05:09:58.230Z,999.52
2017-10-05T05:10:58.223Z,999.59
2017-10-05T05:11:58.231Z,999.54
2017-10-05T05:12:58.199Z,999.62
2017-10-05T05:13:58.187Z,999.60
2017-10-05T05:14:58.183Z,999.68
2017-10-05T05:15:58.171Z,999.76
2017-10-05T05:16:58.158Z,999.73
2017-10-05T05:17:58.149Z,999.76
2017-10-05T05:18:58.137Z,999.80
2017-10-05T05:19:58.128Z,999.83
2017-10-05T05:20:58.122Z,999.77
2017-10-05T05:21:58.107Z,999.79
2017-10-05T05:22:58.098Z,999.74
2017-10-05T05:23:58.087Z,999.73
2017-10-05T05:24:58.078Z,999.77
2017-10-05T05:25:58.067Z,999.78
2017-10-05T05:26:58.058Z,999.80
2017-10-05T05:27:58.049Z,999.81
2017-10-05T05:28:58.042Z,999.86
2017-10-05T05:29:58.027Z,999.86
2017-10-05T05:30:58.017Z,999.91
2017-10-05T05:31:58.007Z,999.90
2017-10-05T05:32:57.996Z,999.94
2017-10-05T05:33:57.986Z,1000.01
2017-10-05T05:34:57.978Z,1000.04
2017-10-05T05:35:57.968Z,1000.09
2017-10-05T05:36:57.959Z,1000.06
2017-10-05T05:37:57.950Z,998.56
2017-10-05T05:38:57.938Z,998.47
2017-10-05T05:39:57.928Z,998.47
2017-10-05T05:40:57.916Z,998.46
2017-10-05T05:41:57.907Z,998.49
2017-10-05T05:42:57.898Z,998.44
2017-10-05T05:43:57.887Z,998.39
2017-10-05T05:44:57.878Z,998.19
2017-10-05T05:45:57.869Z,998.41
2017-10-05T05:46:57.857Z,998.27
2017-10-05T05:47:57.847Z,998.24
2017-10-05T05:48:57.837Z,998.24
2017-10-05T05:49:57.828Z,998.29
2017-10-05T05:50:57.833Z,998.26
2017-10-05T05:51:57.810Z,998.22
2017-10-05T05:52:57.828Z,998.23
2017-10-05T05:53:57.807Z,998.21
2017-10-05T05:54:57.777Z,998.11
2017-10-05T05:55:57.768Z,998.06
2017-10-05T05:56:57.757Z,998.07
2017-10-05T05:57:57.747Z,998.05
2017-10-05T05:58:57.737Z,997.94
2017-10-05T05:59:57.729Z,998.14
2017-10-05T06:00:57.720Z,998.03
2017-10-05T06:01:57.712Z,998.03
2017-10-05T06:02:57.699Z,998.03
2017-10-05T06:03:57.699Z,997.97
2017-10-05T06:04:57.678Z,997.91
2017-10-05T06:05:57.676Z,997.88
2017-10-05T06:06:57.658Z,997.88
2017-10-05T06:07:57.651Z,997.70
2017-10-05T06:08:57.637Z,997.83
2017-10-05T06:09:57.628Z,997.78
2017-10-05T06:10:57.618Z,997.78
2017-10-05T06:11:57.609Z,997.75
2017-10-05T06:12:57.598Z,997.64
2017-10-05T06:13:57.589Z,997.67
2017-10-05T06:14:57.577Z,997.63
2017-10-05T06:15:57.577Z,997.70
2017-10-05T06:16:57.560Z,997.72
2017-10-05T06:17:57.552Z,997.78
2017-10-05T06:18:57.544Z,997.74
2017-10-05T06:19:57.530Z,997.58
2017-10-05T06:20:57.523Z,997.71
2017-10-05T06:21:57.511Z,997.63
2017-10-05T06:22:57.502Z,997.62
2017-10-05T06:23:57.491Z,997.53
2017-10-05T06:24:57.480Z,997.48
2017-10-05T06:25:57.470Z,997.52
2017-10-05T06:26:57.461Z,997.48
2017-10-05T06:27:57.450Z,997.43
2017-10-05T06:28:57.439Z,997.41
2017-10-05T06:29:57.430Z,997.35
2017-10-05T06:30:57.420Z,997.41
2017-10-05T06:31:57.410Z,997.47
2017-10-05T06:32:57.402Z,997.49
2017-10-05T06:33:57.392Z,997.38
2017-10-05T06:34:57.382Z,997.36
2017-10-05T06:35:57.373Z,997.27
2017-10-05T06:36:57.363Z,997.28
2017-10-05T06:37:57.355Z,997.30
2017-10-05T06:38:57.345Z,997.33
2017-10-05T06:39:57.332Z,997.22
2017-10-05T06:40:57.320Z,997.30
2017-10-05T06:41:57.311Z,997.29
2017-10-05T06:42:57.301Z,997.30
2017-10-05T06:43:57.293Z,997.22
2017-10-05T06:44:57.286Z,997.07
2017-10-05T06:45:57.278Z,997.13
2017-10-05T06:46:57.265Z,997.10
2017-10-05T06:47:57.253Z,997.17
2017-10-05T06:48:57.261Z,997.23
2017-10-05T06:49:57.235Z,997.10
2017-10-05T06:50:57.222Z,997.09
2017-10-05T06:51:57.211Z,996.96
2017-10-05T06:52:57.203Z,997.06
2017-10-05T06:53:57.220Z,997.01
2017-10-05T06:54:57.184Z,996.98
2017-10-05T06:55:57.174Z,997.03
2017-10-05T06:56:57.162Z,996.93
2017-10-05T06:57:57.152Z,996.88
2017-10-05T06:58:57.142Z,996.82
2017-10-05T06:59:57.133Z,997.07
2017-10-05T07:00:57.123Z,996.97
2017-10-05T07:01:57.114Z,996.99
2017-10-05T07:02:57.103Z,996.69
2017-10-05T07:03:57.094Z,996.91
2017-10-05T07:04:57.083Z,996.94
2017-10-05T07:05:57.077Z,996.81
2017-10-05T07:06:57.067Z,996.87
2017-10-05T07:07:57.053Z,996.74
2017-10-05T07:08:57.045Z,996.81
2017-10-05T07:09:57.034Z,996.80
2017-10-05T07:10:57.024Z,996.81
2017-10-05T07:11:57.016Z,996.75
2017-10-05T07:12:57.004Z,996.65
2017-10-05T07:13:56.996Z,996.68
2017-10-05T07:14:56.985Z,996.65
2017-10-05T07:15:56.975Z,996.60
2017-10-05T07:16:56.970Z,996.49
2017-10-05T07:17:56.955Z,996.61
2017-10-05T07:18:56.945Z,996.68
2017-10-05T07:19:56.936Z,996.61
2017-10-05T07:20:56.925Z,996.51
2017-10-05T07:21:56.917Z,996.56
2017-10-05T07:22:56.906Z,996.50
2017-10-05T07:23:56.896Z,996.69
2017-10-05T07:24:56.892Z,996.63
2017-10-05T07:25:56.877Z,996.48
2017-10-05T07:26:56.866Z,996.45
2017-10-05T07:27:56.858Z,996.58
2017-10-05T07:28:56.846Z,996.47
2017-10-05T07:29:56.835Z,996.62
2017-10-05T07:30:56.828Z,996.51
2017-10-05T07:31:56.820Z,996.46
2017-10-05T07:32:56.807Z,996.37
2017-10-05T07:33:56.797Z,996.44
2017-10-05T07:34:56.788Z,996.43
2017-10-05T07:35:56.779Z,996.42
2017-10-05T07:36:56.766Z,996.35
2017-10-05T07:37:56.758Z,996.47
2017-10-05T07:38:56.749Z,996.38
2017-10-05T07:39:56.740Z,996.31
2017-10-05T07:40:56.732Z,996.29
2017-10-05T07:41:56.719Z,996.22
2017-10-05T07:42:56.712Z,996.19
2017-10-05T07:43:56.699Z,996.24
2017-10-05T07:44:56.691Z,996.27
2017-10-05T07:45:56.680Z,996.17
2017-10-05T07:46:56.670Z,996.30
2017-10-05T07:47:56.667Z,996.21
2017-10-05T07:48:56.652Z,996.13
2017-10-05T07:49:56.641Z,996.20
2017-10-05T07:50:56.631Z,996.11
2017-10-05T07:51:56.624Z,996.08
2017-10-05T07:52:56.610Z,996.14
2017-10-05T07:53:56.603Z,996.13
2017-10-05T07:54:56.594Z,996.05
2017-10-05T07:55:56.583Z,995.87
2017-10-05T07:56:56.577Z,996.06
2017-10-05T07:57:56.563Z,995.79
2017-10-05T07:58:56.554Z,995.86
2017-10-05T07:59:56.544Z,996.04
2017-10-05T08:00:56.536Z,995.92
2017-10-05T08:01:56.525Z,995.84
2017-10-05T08:02:56.516Z,995.84
2017-10-05T08:03:56.505Z,995.90
2017-10-05T08:04:56.494Z,995.87
2017-10-05T08:05:56.484Z,995.96
2017-10-05T08:06:56.480Z,995.72
2017-10-05T08:07:56.472Z,995.94
2017-10-05T08:08:56.460Z,995.82
2017-10-05T08:09:56.446Z,995.81
2017-10-05T08:10:56.451Z,995.88
2017-10-05T08:11:56.426Z,995.91
2017-10-05T08:12:56.421Z,995.75
2017-10-05T08:13:56.409Z,996.03
2017-10-05T08:14:56.399Z,995.87
2017-10-05T08:15:56.390Z,995.86
2017-10-05T08:16:56.386Z,995.85
2017-10-05T08:17:56.371Z,995.71
2017-10-05T08:18:56.360Z,995.69
2017-10-05T08:19:56.353Z,995.65
2017-10-05T08:20:56.343Z,995.61
2017-10-05T08:21:56.333Z,995.78
2017-10-05T08:22:56.325Z,995.79
2017-10-05T08:23:56.313Z,995.70
2017-10-05T08:24:56.302Z,995.61
2017-10-05T08:25:56.295Z,995.57
2017-10-05T08:26:56.287Z,995.65
2017-10-05T08:27:56.275Z,995.55
2017-10-05T08:28:56.267Z,995.67
2017-10-05T08:29:56.255Z,995.54
2017-10-05T08:30:56.246Z,995.45
2017-10-05T08:31:56.237Z,995.49
2017-10-05T08:32:56.228Z,995.44
2017-10-05T08:33:56.220Z,995.50
2017-10-05T08:34:56.212Z,995.49
2017-10-05T08:35:56.227Z,995.46
2017-10-05T08:36:56.188Z,995.40
2017-10-05T08:37:56.184Z,995.49
2017-10-05T08:38:56.173Z,995.47
2017-10-05T08:39:56.162Z,995.39
2017-10-05T08:40:56.152Z,995.34
2017-10-05T08:41:56.144Z,995.27
2017-10-05T08:42:56.132Z,995.43
2017-10-05T08:43:56.126Z,995.35
2017-10-05T08:44:56.120Z,995.45
2017-10-05T08:45:56.107Z,995.43
2017-10-05T08:46:56.098Z,995.37
2017-10-05T08:47:56.092Z,995.28
2017-10-05T08:48:56.077Z,995.33
2017-10-05T08:49:56.070Z,995.13
2017-10-05T08:50:56.058Z,995.25
2017-10-05T08:51:56.055Z,995.27
2017-10-05T08:52:56.041Z,995.43
2017-10-05T08:53:56.032Z,995.37
2017-10-05T08:54:56.022Z,995.15
2017-10-05T08:55:56.017Z,995.18
2017-10-05T08:56:56.003Z,995.31
2017-10-05T08:57:55.993Z,995.25
2017-10-05T08:58:55.986Z,995.19
2017-10-05T08:59:55.976Z,995.27
2017-10-05T09:00:55.970Z,995.29
2017-10-05T09:01:55.958Z,995.31
2017-10-05T09:02:55.949Z,995.30
2017-10-05T09:03:55.941Z,995.16
2017-10-05T09:04:55.937Z,995.33
2017-10-05T09:05:55.927Z,995.28
2017-10-05T09:06:55.913Z,995.25
2017-10-05T09:07:55.905Z,995.21
2017-10-05T09:08:55.895Z,995.33
2017-10-05T09:09:55.888Z,995.22
2017-10-05T09:10:55.877Z,995.22
2017-10-05T09:11:55.875Z,995.05
2017-10-05T09:12:55.857Z,995.29
2017-10-05T09:13:55.849Z,995.13
2017-10-05T09:14:55.866Z,995.24
2017-10-05T09:15:55.839Z,995.29
2017-10-05T09:16:55.826Z,995.32
2017-10-05T09:17:55.819Z,995.19
2017-10-05T09:18:55.806Z,995.17
2017-10-05T09:19:55.797Z,995.16
2017-10-05T09:20:55.787Z,995.22
2017-10-05T09:21:55.779Z,995.12
2017-10-05T09:22:55.777Z,995.13
2017-10-05T09:23:55.764Z,995.11
2017-10-05T09:24:55.751Z,995.08
2017-10-05T09:25:55.742Z,995.21
2017-10-05T09:26:55.738Z,995.16
2017-10-05T09:27:55.726Z,995.29
2017-10-05T09:28:55.715Z,995.31
2017-10-05T09:29:55.708Z,995.23
2017-10-05T09:30:55.699Z,995.30
2017-10-05T09:31:55.690Z,995.06
2017-10-05T09:32:55.680Z,995.15
2017-10-05T09:33:55.672Z,995.14
2017-10-05T09:34:55.664Z,995.28
2017-10-05T09:35:55.660Z,995.25
2017-10-05T09:36:55.645Z,995.13
2017-10-05T09:37:55.639Z,995.28
2017-10-05T09:38:55.630Z,995.05
2017-10-05T09:39:55.622Z,995.26
2017-10-05T09:40:55.611Z,994.97
2017-10-05T09:41:55.601Z,995.12
2017-10-05T09:42:55.595Z,995.04
2017-10-05T09:43:55.585Z,995.02
2017-10-05T09:44:55.575Z,995.30
2017-10-05T09:45:55.573Z,995.10
2017-10-05T09:46:55.561Z,995.21
2017-10-05T09:47:55.556Z,995.07
2017-10-05T09:48:55.545Z,995.16
2017-10-05T09:49:55.533Z,995.20
2017-10-05T09:50:55.525Z,995.19
2017-10-05T09:51:55.520Z,995.20
2017-10-05T09:52:55.507Z,995.33
2017-10-05T09:53:55.500Z,995.14
2017-10-05T09:54:55.491Z,995.27
2017-10-05T09:55:55.482Z,995.32
2017-10-05T09:56:55.480Z,995.61
2017-10-05T09:57:55.463Z,995.61
2017-10-05T09:58:55.456Z,995.62
2017-10-05T09:59:55.447Z,995.57
2017-10-05T10:00:55.439Z,995.65
2017-10-05T10:01:55.432Z,995.71
2017-10-05T10:02:55.436Z,995.73
2017-10-05T10:03:55.415Z,995.78
2017-10-05T10:04:55.413Z,995.80
2017-10-05T10:05:55.403Z,996.03
2017-10-05T10:06:55.398Z,996.07
2017-10-05T10:07:55.389Z,995.99
2017-10-05T10:08:55.378Z,995.92
2017-10-05T10:09:55.374Z,996.11
2017-10-05T10:10:55.365Z,996.36
2017-10-05T10:11:55.357Z,996.22
2017-10-05T10:12:55.350Z,996.18
2017-10-05T10:13:55.350Z,996.25
2017-10-05T10:14:55.339Z,996.26
2017-10-05T10:15:55.332Z,996.48
2017-10-05T10:16:55.327Z,996.13
2017-10-05T10:17:55.319Z,996.51
2017-10-05T10:18:55.313Z,996.61
2017-10-05T10:19:55.309Z,996.52
2017-10-05T10:20:55.300Z,996.54
2017-10-05T10:21:55.300Z,996.71
2017-10-05T10:22:55.289Z,996.62
2017-10-05T10:23:55.283Z,996.68
2017-10-05T10:24:55.279Z,996.94
2017-10-05T10:25:55.270Z,996.67
2017-10-05T10:26:55.265Z,996.64
2017-10-05T10:27:55.260Z,997.12
2017-10-05T10:28:55.255Z,996.95
2017-10-05T10:29:55.249Z,996.98
2017-10-05T10:30:55.245Z,997.07
2017-10-05T10:31:55.238Z,996.84
2017-10-05T10:32:55.239Z,997.09
2017-10-05T10:33:55.234Z,997.23
2017-10-05T10:34:55.225Z,997.18
2017-10-05T10:35:55.222Z,997.11
2017-10-05T10:36:55.215Z,997.36
2017-10-05T10:37:55.209Z,996.90
2017-10-05T10:38:55.208Z,997.39
2017-10-05T10:39:55.200Z,997.33
2017-10-05T10:40:55.194Z,997.22
2017-10-05T10:41:55.189Z,997.39
2017-10-05T10:42:55.186Z,997.59
2017-10-05T10:43:55.180Z,997.59
2017-10-05T10:44:55.174Z,997.59
2017-10-05T10:45:55.169Z,997.63
2017-10-05T10:46:55.164Z,997.96
2017-10-05T10:47:55.157Z,997.84
2017-10-05T10:48:55.153Z,997.91
2017-10-05T10:49:55.145Z,997.79
2017-10-05T10:50:55.140Z,997.85
2017-10-05T10:51:55.134Z,997.89
2017-10-05T10:52:55.128Z,997.93
2017-10-05T10:53:55.123Z,998.11
2017-10-05T10:54:55.118Z,997.99
2017-10-05T10:55:55.114Z,998.09
2017-10-05T10:56:55.107Z,998.29
2017-10-05T10:57:55.102Z,998.18
2017-10-05T10:58:55.099Z,998.08
2017-10-05T10:59:55.092Z,998.11
2017-10-05T11:00:55.085Z,998.28
2017-10-05T11:01:55.081Z,998.33
2017-10-05T11:02:55.078Z,998.36
2017-10-05T11:03:55.070Z,998.54
2017-10-05T11:04:55.065Z,998.55
2017-10-05T11:05:55.060Z,998.73
2017-10-05T11:06:55.055Z,998.52
2017-10-05T11:07:55.050Z,998.70
2017-10-05T11:08:55.043Z,998.77
2017-10-05T11:09:55.043Z,998.89
2017-10-05T11:10:55.033Z,998.78
2017-10-05T11:11:55.028Z,998.91
2017-10-05T11:12:55.020Z,998.89
2017-10-05T11:13:55.015Z,998.86
2017-10-05T11:14:55.009Z,998.85
2017-10-05T11:15:55.004Z,999.01
2017-10-05T11:16:54.998Z,998.92
2017-10-05T11:17:54.995Z,999.13
2017-10-05T11:18:54.989Z,999.20
2017-10-05T11:19:54.986Z,999.20
2017-10-05T11:20:54.980Z,999.30
2017-10-05T11:21:54.974Z,999.40
2017-10-05T11:22:54.972Z,999.08
2017-10-05T11:23:54.965Z,999.37
2017-10-05T11:24:54.968Z,999.47
2017-10-05T11:25:54.956Z,999.45
2017-10-05T11:26:54.951Z,999.50
2017-10-05T11:27:54.947Z,999.57
2017-10-05T11:28:54.942Z,999.64
2017-10-05T11:29:54.938Z,999.72
2017-10-05T11:30:54.932Z,999.60
2017-10-05T11:31:54.939Z,999.32
2017-10-05T11:32:54.921Z,999.69
2017-10-05T11:33:54.917Z,999.61
2017-10-05T11:34:54.908Z,999.76
2017-10-05T11:35:54.899Z,999.75
2017-10-05T11:36:54.892Z,999.77
2017-10-05T11:37:54.889Z,999.80
2017-10-05T11:38:54.880Z,999.76
2017-10-05T11:39:54.875Z,999.74
2017-10-05T11:40:54.869Z,999.76
2017-10-05T11:41:54.872Z,999.81
2017-10-05T11:42:54.857Z,999.72
2017-10-05T11:43:54.847Z,999.86
2017-10-05T11:44:54.847Z,999.79
2017-10-05T11:45:54.832Z,999.82
2017-10-05T11:46:54.828Z,999.80
2017-10-05T11:47:54.820Z,999.82
2017-10-05T11:48:54.812Z,999.91
2017-10-05T11:49:54.807Z,999.87
2017-10-05T11:50:54.799Z,1000.12
2017-10-05T11:51:54.793Z,1000.20
2017-10-05T11:52:54.783Z,999.82
2017-10-05T11:53:54.776Z,1000.04
2017-10-05T11:54:54.769Z,1000.16
2017-10-05T11:55:54.764Z,1000.32
2017-10-05T11:56:54.755Z,1000.36
2017-10-05T11:57:54.748Z,1000.18
2017-10-05T11:58:54.741Z,1000.22
2017-10-05T11:59:54.734Z,1000.20
2017-10-05T12:00:54.729Z,1000.44
2017-10-05T12:01:54.717Z,1000.34
2017-10-05T12:02:54.711Z,1000.53
2017-10-05T12:03:54.702Z,1000.54
2017-10-05T12:04:54.694Z,1000.62
2017-10-05T12:05:54.692Z,1000.67
2017-10-05T12:06:54.678Z,1000.81
2017-10-05T12:07:54.670Z,1000.65
2017-10-05T12:08:54.662Z,1000.75
2017-10-05T12:09:54.660Z,1000.76
2017-10-05T12:10:54.648Z,1000.81
2017-10-05T12:11:54.644Z,1000.87
2017-10-05T12:12:54.639Z,1000.76
2017-10-05T12:13:54.627Z,1000.90
2017-10-05T12:14:54.621Z,1000.77
2017-10-05T12:15:54.615Z,1000.87
2017-10-05T12:16:54.610Z,1000.92
2017-10-05T12:17:54.602Z,1000.85